Murtenlauf: der moderne Klassiker! Murtenlauf: der moderne Klassiker! Murtenlauf: der moderne Klassiker! Willkommen bei Migros
FR  DE
RankTeam / Name VornameLaufzeitKat.RankOverall  
1. TSV Rechthaltenladies 7:45'06",3   
  Zahno Regula 1:07'05",0W4517
  Buchs Rachel 1:14'07",5W201627
  Traina Manuela 1:17'24",8W351458
  Jungo Stefanie 1:20'13",0W203581
  Jelk Antoinette 1:22'53",2W5010131
  Schwartz Valérie 1:23'22",8W2053137
2. Footing Club Lausanne Femmes 1 7:54'52",2   
  Moinat Aurélie 1:16'44",0W351349
  Brugnoni Lara 1:17'23",6W202657
  Bolzoni Gabriela 1:19'27",6W50474
  Juilland Florence 1:19'57",0W351879
  Dupasquier Christèle 1:20'20",3W203786
  Avondet Anne-Laure 1:20'59",7W451198
3. LAT Sense Ladies 8:04'46",4   
  Zumwald Judith 1:15'33",3W40736
  Wagemester Inga 1:15'51",8W351140
  Isaak-Mauron Evelyne 1:17'07",3W40954
  Zbinden Marianne 1:25'01",1W3534167
  Zurkinden Susanne 1:25'04",6W5014168
  Boschung Joelle Anja 1:26'08",3W2076202
4. FREE-BOURG RUNNERS 8:50'08",6   
  Romanens Christelle 1:13'39",0W35524
  Vonlanthen Martine 1:23'43",6W5012145
  Vonlanthen Angéle 1:27'49",3W2095257
  Monney Myriam 1:28'12",7W4534265
  Thiémard Audrey 1:37'34",7W20325782
  David Marie-Claire 1:39'09",3W20369890
5. CARC Romont 8:57'54",6   
  Fleury Jeanine 1:21'38",9W508110
  Pittet Brigitte 1:27'40",6W4530252
  Roulin Elodie 1:28'44",2W20109284
  Fleury Justine 1:29'29",4W20117301
  Baudois Fanny 1:32'24",3W20182442
  Dénervaud Béatrice 1:37'57",2W5072802
1 2 
 © 2017 Course Morat-Fribourg
Design by Atelier 32, Fribourg - Powered by CISEL Informatique SA, Matran